Aviation Digital Data Service (ADDS)

Output produced by METARs form (2112 UTC 22 October 2017)
found at http://www.aviationweather.gov/adds/metars/
 
METAR text: KIDI 222055Z AUTO 18010KT 10SM CLR 24/11 A3025 RMK A01
Conditions at: KIDI (INDIANA/STEWART , PA, US) observed 2055 UTC 22 October 2017
Temperature: 24.0°C (75°F)
Dewpoint: 11.0°C (52°F) [RH = 44%]
Pressure (altimeter): 30.25 inches Hg (1024.5 mb)
Winds: from the S (180 degrees) at 12 MPH (10 knots; 5.2 m/s)
Visibility: 10 or more miles (16+ km)
Ceiling: at least 12,000 feet AGL
Clouds: sky clear below 12,000 feet AGL
Weather: automated observation with no human augmentation;
there may or may not be significant weather present at this time

METAR text: KIDI 222035Z AUTO 16009G15KT 10SM CLR 24/11 A3025 RMK A01
Conditions at: KIDI (INDIANA/STEWART , PA, US) observed 2035 UTC 22 October 2017
Temperature: 24.0°C (75°F)
Dewpoint: 11.0°C (52°F) [RH = 44%]
Pressure (altimeter): 30.25 inches Hg (1024.5 mb)
Winds: from the SSE (160 degrees) at 10 MPH (9 knots; 4.7 m/s)
gusting to 17 MPH (15 knots; 7.8 m/s)
Visibility: 10 or more miles (16+ km)
Ceiling: at least 12,000 feet AGL
Clouds: sky clear below 12,000 feet AGL
Weather: automated observation with no human augmentation;
there may or may not be significant weather present at this time

METAR text: KIDI 222015Z AUTO 18007KT 130V220 10SM CLR 24/12 A3025 RMK A01
Conditions at: KIDI (INDIANA/STEWART , PA, US) observed 2015 UTC 22 October 2017
Temperature: 24.0°C (75°F)
Dewpoint: 12.0°C (54°F) [RH = 47%]
Pressure (altimeter): 30.25 inches Hg (1024.5 mb)
Winds: from the S (180 degrees) at 8 MPH (7 knots; 3.6 m/s)
Visibility: 10 or more miles (16+ km)
Ceiling: at least 12,000 feet AGL
Clouds: sky clear below 12,000 feet AGL
Weather: automated observation with no human augmentation;
there may or may not be significant weather present at this time

METAR text: KIDI 221955Z AUTO 17007KT 10SM CLR 24/11 A3026 RMK A01
Conditions at: KIDI (INDIANA/STEWART , PA, US) observed 1955 UTC 22 October 2017
Temperature: 24.0°C (75°F)
Dewpoint: 11.0°C (52°F) [RH = 44%]
Pressure (altimeter): 30.26 inches Hg (1024.8 mb)
Winds: from the S (170 degrees) at 8 MPH (7 knots; 3.6 m/s)
Visibility: 10 or more miles (16+ km)
Ceiling: at least 12,000 feet AGL
Clouds: sky clear below 12,000 feet AGL
Weather: automated observation with no human augmentation;
there may or may not be significant weather present at this time

METAR text: KIDI 221935Z AUTO 16008KT 10SM CLR 24/11 A3026 RMK A01
Conditions at: KIDI (INDIANA/STEWART , PA, US) observed 1935 UTC 22 October 2017
Temperature: 24.0°C (75°F)
Dewpoint: 11.0°C (52°F) [RH = 44%]
Pressure (altimeter): 30.26 inches Hg (1024.8 mb)
Winds: from the SSE (160 degrees) at 9 MPH (8 knots; 4.2 m/s)
Visibility: 10 or more miles (16+ km)
Ceiling: at least 12,000 feet AGL
Clouds: sky clear below 12,000 feet AGL
Weather: automated observation with no human augmentation;
there may or may not be significant weather present at this time

METAR text: KIDI 221915Z AUTO 16006G11KT 10SM CLR 24/11 A3026 RMK A01
Conditions at: KIDI (INDIANA/STEWART , PA, US) observed 1915 UTC 22 October 2017
Temperature: 24.0°C (75°F)
Dewpoint: 11.0°C (52°F) [RH = 44%]
Pressure (altimeter): 30.26 inches Hg (1024.8 mb)
Winds: from the SSE (160 degrees) at 7 MPH (6 knots; 3.1 m/s)
gusting to 13 MPH (11 knots; 5.7 m/s)
Visibility: 10 or more miles (16+ km)
Ceiling: at least 12,000 feet AGL
Clouds: sky clear below 12,000 feet AGL
Weather: automated observation with no human augmentation;
there may or may not be significant weather present at this time

METAR text: KIDI 221855Z AUTO 19008KT 10SM CLR 24/12 A3027 RMK A01
Conditions at: KIDI (INDIANA/STEWART , PA, US) observed 1855 UTC 22 October 2017
Temperature: 24.0°C (75°F)
Dewpoint: 12.0°C (54°F) [RH = 47%]
Pressure (altimeter): 30.27 inches Hg (1025.1 mb)
Winds: from the S (190 degrees) at 9 MPH (8 knots; 4.2 m/s)
Visibility: 10 or more miles (16+ km)
Ceiling: at least 12,000 feet AGL
Clouds: sky clear below 12,000 feet AGL
Weather: automated observation with no human augmentation;
there may or may not be significant weather present at this time

METAR text: KIDI 221835Z AUTO 17004KT 10SM CLR 24/11 A3028 RMK A01
Conditions at: KIDI (INDIANA/STEWART , PA, US) observed 1835 UTC 22 October 2017
Temperature: 24.0°C (75°F)
Dewpoint: 11.0°C (52°F) [RH = 44%]
Pressure (altimeter): 30.28 inches Hg (1025.5 mb)
Winds: from the S (170 degrees) at 5 MPH (4 knots; 2.1 m/s)
Visibility: 10 or more miles (16+ km)
Ceiling: at least 12,000 feet AGL
Clouds: sky clear below 12,000 feet AGL
Weather: automated observation with no human augmentation;
there may or may not be significant weather present at this time

METAR text: KIDI 221815Z AUTO 12004KT 10SM CLR 23/11 A3029 RMK A01
Conditions at: KIDI (INDIANA/STEWART , PA, US) observed 1815 UTC 22 October 2017
Temperature: 23.0°C (73°F)
Dewpoint: 11.0°C (52°F) [RH = 47%]
Pressure (altimeter): 30.29 inches Hg (1025.8 mb)
Winds: from the ESE (120 degrees) at 5 MPH (4 knots; 2.1 m/s)
Visibility: 10 or more miles (16+ km)
Ceiling: at least 12,000 feet AGL
Clouds: sky clear below 12,000 feet AGL
Weather: automated observation with no human augmentation;
there may or may not be significant weather present at this time

METAR text: KIDI 221755Z AUTO 14006KT 10SM CLR 23/11 A3029 RMK A01
Conditions at: KIDI (INDIANA/STEWART , PA, US) observed 1755 UTC 22 October 2017
Temperature: 23.0°C (73°F)
Dewpoint: 11.0°C (52°F) [RH = 47%]
Pressure (altimeter): 30.29 inches Hg (1025.8 mb)
Winds: from the SE (140 degrees) at 7 MPH (6 knots; 3.1 m/s)
Visibility: 10 or more miles (16+ km)
Ceiling: at least 12,000 feet AGL
Clouds: sky clear below 12,000 feet AGL
Weather: automated observation with no human augmentation;
there may or may not be significant weather present at this time

METAR text: KIDI 221735Z AUTO 00000KT 10SM CLR 23/11 A3030 RMK A01
Conditions at: KIDI (INDIANA/STEWART , PA, US) observed 1735 UTC 22 October 2017
Temperature: 23.0°C (73°F)
Dewpoint: 11.0°C (52°F) [RH = 47%]
Pressure (altimeter): 30.30 inches Hg (1026.2 mb)
Winds: calm
Visibility: 10 or more miles (16+ km)
Ceiling: at least 12,000 feet AGL
Clouds: sky clear below 12,000 feet AGL
Weather: automated observation with no human augmentation;
there may or may not be significant weather present at this time

METAR text: KIDI 221715Z AUTO 00000KT 10SM CLR 22/11 A3032 RMK A01
Conditions at: KIDI (INDIANA/STEWART , PA, US) observed 1715 UTC 22 October 2017
Temperature: 22.0°C (72°F)
Dewpoint: 11.0°C (52°F) [RH = 50%]
Pressure (altimeter): 30.32 inches Hg (1026.8 mb)
Winds: calm
Visibility: 10 or more miles (16+ km)
Ceiling: at least 12,000 feet AGL
Clouds: sky clear below 12,000 feet AGL
Weather: automated observation with no human augmentation;
there may or may not be significant weather present at this time

METAR text: KIDI 221655Z AUTO VRB04G10KT 10SM CLR 22/11 A3033 RMK A01
Conditions at: KIDI (INDIANA/STEWART , PA, US) observed 1655 UTC 22 October 2017
Temperature: 22.0°C (72°F)
Dewpoint: 11.0°C (52°F) [RH = 50%]
Pressure (altimeter): 30.33 inches Hg (1027.2 mb)
Winds: variable direction winds at 5 MPH (4 knots; 2.1 m/s)
gusting to 12 MPH (10 knots; 5.2 m/s)
Visibility: 10 or more miles (16+ km)
Ceiling: at least 12,000 feet AGL
Clouds: sky clear below 12,000 feet AGL
Weather: automated observation with no human augmentation;
there may or may not be significant weather present at this time

METAR text: KIDI 221635Z AUTO 21006KT 10SM CLR 22/12 A3033 RMK A01
Conditions at: KIDI (INDIANA/STEWART , PA, US) observed 1635 UTC 22 October 2017
Temperature: 22.0°C (72°F)
Dewpoint: 12.0°C (54°F) [RH = 53%]
Pressure (altimeter): 30.33 inches Hg (1027.2 mb)
Winds: from the SSW (210 degrees) at 7 MPH (6 knots; 3.1 m/s)
Visibility: 10 or more miles (16+ km)
Ceiling: at least 12,000 feet AGL
Clouds: sky clear below 12,000 feet AGL
Weather: automated observation with no human augmentation;
there may or may not be significant weather present at this time

METAR text: KIDI 221615Z AUTO 18007KT 10SM CLR 22/12 A3034 RMK A01
Conditions at: KIDI (INDIANA/STEWART , PA, US) observed 1615 UTC 22 October 2017
Temperature: 22.0°C (72°F)
Dewpoint: 12.0°C (54°F) [RH = 53%]
Pressure (altimeter): 30.34 inches Hg (1027.5 mb)
Winds: from the S (180 degrees) at 8 MPH (7 knots; 3.6 m/s)
Visibility: 10 or more miles (16+ km)
Ceiling: at least 12,000 feet AGL
Clouds: sky clear below 12,000 feet AGL
Weather: automated observation with no human augmentation;
there may or may not be significant weather present at this time

METAR text: KIDI 221555Z AUTO 17006KT 10SM CLR 21/12 A3033 RMK A01
Conditions at: KIDI (INDIANA/STEWART , PA, US) observed 1555 UTC 22 October 2017
Temperature: 21.0°C (70°F)
Dewpoint: 12.0°C (54°F) [RH = 56%]
Pressure (altimeter): 30.33 inches Hg (1027.2 mb)
Winds: from the S (170 degrees) at 7 MPH (6 knots; 3.1 m/s)
Visibility: 10 or more miles (16+ km)
Ceiling: at least 12,000 feet AGL
Clouds: sky clear below 12,000 feet AGL
Weather: automated observation with no human augmentation;
there may or may not be significant weather present at this time

METAR text: KIDI 221535Z AUTO 19008KT 10SM CLR 21/12 A3034 RMK A01
Conditions at: KIDI (INDIANA/STEWART , PA, US) observed 1535 UTC 22 October 2017
Temperature: 21.0°C (70°F)
Dewpoint: 12.0°C (54°F) [RH = 56%]
Pressure (altimeter): 30.34 inches Hg (1027.5 mb)
Winds: from the S (190 degrees) at 9 MPH (8 knots; 4.2 m/s)
Visibility: 10 or more miles (16+ km)
Ceiling: at least 12,000 feet AGL
Clouds: sky clear below 12,000 feet AGL
Weather: automated observation with no human augmentation;
there may or may not be significant weather present at this time

METAR text: KIDI 221515Z AUTO 18006KT 10SM CLR 20/12 A3034 RMK A01
Conditions at: KIDI (INDIANA/STEWART , PA, US) observed 1515 UTC 22 October 2017
Temperature: 20.0°C (68°F)
Dewpoint: 12.0°C (54°F) [RH = 60%]
Pressure (altimeter): 30.34 inches Hg (1027.5 mb)
Winds: from the S (180 degrees) at 7 MPH (6 knots; 3.1 m/s)
Visibility: 10 or more miles (16+ km)
Ceiling: at least 12,000 feet AGL
Clouds: sky clear below 12,000 feet AGL
Weather: automated observation with no human augmentation;
there may or may not be significant weather present at this time

METAR text: KIDI 221455Z AUTO VRB05KT 10SM CLR 20/12 A3034 RMK A01
Conditions at: KIDI (INDIANA/STEWART , PA, US) observed 1455 UTC 22 October 2017
Temperature: 20.0°C (68°F)
Dewpoint: 12.0°C (54°F) [RH = 60%]
Pressure (altimeter): 30.34 inches Hg (1027.5 mb)
Winds: variable direction winds at 6 MPH (5 knots; 2.6 m/s)
Visibility: 10 or more miles (16+ km)
Ceiling: at least 12,000 feet AGL
Clouds: sky clear below 12,000 feet AGL
Weather: automated observation with no human augmentation;
there may or may not be significant weather present at this time

METAR text: KIDI 221435Z AUTO VRB04KT 10SM CLR 19/12 A3035 RMK A01
Conditions at: KIDI (INDIANA/STEWART , PA, US) observed 1435 UTC 22 October 2017
Temperature: 19.0°C (66°F)
Dewpoint: 12.0°C (54°F) [RH = 64%]
Pressure (altimeter): 30.35 inches Hg (1027.9 mb)
Winds: variable direction winds at 5 MPH (4 knots; 2.1 m/s)
Visibility: 10 or more miles (16+ km)
Ceiling: at least 12,000 feet AGL
Clouds: sky clear below 12,000 feet AGL
Weather: automated observation with no human augmentation;
there may or may not be significant weather present at this time

METAR text: KIDI 221415Z AUTO VRB05KT 10SM CLR 19/12 A3035 RMK A01
Conditions at: KIDI (INDIANA/STEWART , PA, US) observed 1415 UTC 22 October 2017
Temperature: 19.0°C (66°F)
Dewpoint: 12.0°C (54°F) [RH = 64%]
Pressure (altimeter): 30.35 inches Hg (1027.9 mb)
Winds: variable direction winds at 6 MPH (5 knots; 2.6 m/s)
Visibility: 10 or more miles (16+ km)
Ceiling: at least 12,000 feet AGL
Clouds: sky clear below 12,000 feet AGL
Weather: automated observation with no human augmentation;
there may or may not be significant weather present at this time

METAR text: KIDI 221355Z AUTO 14004KT 10SM CLR 18/11 A3035 RMK A01
Conditions at: KIDI (INDIANA/STEWART , PA, US) observed 1355 UTC 22 October 2017
Temperature: 18.0°C (64°F)
Dewpoint: 11.0°C (52°F) [RH = 64%]
Pressure (altimeter): 30.35 inches Hg (1027.9 mb)
Winds: from the SE (140 degrees) at 5 MPH (4 knots; 2.1 m/s)
Visibility: 10 or more miles (16+ km)
Ceiling: at least 12,000 feet AGL
Clouds: sky clear below 12,000 feet AGL
Weather: automated observation with no human augmentation;
there may or may not be significant weather present at this time

METAR text: KIDI 221335Z AUTO 00000KT 10SM CLR 17/12 A3036 RMK A01
Conditions at: KIDI (INDIANA/STEWART , PA, US) observed 1335 UTC 22 October 2017
Temperature: 17.0°C (63°F)
Dewpoint: 12.0°C (54°F) [RH = 72%]
Pressure (altimeter): 30.36 inches Hg (1028.2 mb)
Winds: calm
Visibility: 10 or more miles (16+ km)
Ceiling: at least 12,000 feet AGL
Clouds: sky clear below 12,000 feet AGL
Weather: automated observation with no human augmentation;
there may or may not be significant weather present at this time

METAR text: KIDI 221315Z AUTO 00000KT 10SM CLR 15/11 A3035 RMK A01
Conditions at: KIDI (INDIANA/STEWART , PA, US) observed 1315 UTC 22 October 2017
Temperature: 15.0°C (59°F)
Dewpoint: 11.0°C (52°F) [RH = 77%]
Pressure (altimeter): 30.35 inches Hg (1027.9 mb)
Winds: calm
Visibility: 10 or more miles (16+ km)
Ceiling: at least 12,000 feet AGL
Clouds: sky clear below 12,000 feet AGL
Weather: automated observation with no human augmentation;
there may or may not be significant weather present at this time

METAR text: KIDI 221255Z AUTO 00000KT 10SM CLR 12/10 A3035 RMK A01
Conditions at: KIDI (INDIANA/STEWART , PA, US) observed 1255 UTC 22 October 2017
Temperature: 12.0°C (54°F)
Dewpoint: 10.0°C (50°F) [RH = 88%]
Pressure (altimeter): 30.35 inches Hg (1027.9 mb)
Winds: calm
Visibility: 10 or more miles (16+ km)
Ceiling: at least 12,000 feet AGL
Clouds: sky clear below 12,000 feet AGL
Weather: automated observation with no human augmentation;
there may or may not be significant weather present at this time

METAR text: KIDI 221235Z AUTO 00000KT 10SM CLR 11/09 A3036 RMK A01
Conditions at: KIDI (INDIANA/STEWART , PA, US) observed 1235 UTC 22 October 2017
Temperature: 11.0°C (52°F)
Dewpoint: 9.0°C (48°F) [RH = 87%]
Pressure (altimeter): 30.36 inches Hg (1028.2 mb)
Winds: calm
Visibility: 10 or more miles (16+ km)
Ceiling: at least 12,000 feet AGL
Clouds: sky clear below 12,000 feet AGL
Weather: automated observation with no human augmentation;
there may or may not be significant weather present at this time

METAR text: KIDI 221215Z AUTO 00000KT 10SM CLR 09/08 A3035 RMK A01
Conditions at: KIDI (INDIANA/STEWART , PA, US) observed 1215 UTC 22 October 2017
Temperature: 9.0°C (48°F)
Dewpoint: 8.0°C (46°F) [RH = 93%]
Pressure (altimeter): 30.35 inches Hg (1027.9 mb)
Winds: calm
Visibility: 10 or more miles (16+ km)
Ceiling: at least 12,000 feet AGL
Clouds: sky clear below 12,000 feet AGL
Weather: automated observation with no human augmentation;
there may or may not be significant weather present at this time

METAR text: KIDI 221155Z AUTO 00000KT 10SM CLR 09/08 A3035 RMK A01
Conditions at: KIDI (INDIANA/STEWART , PA, US) observed 1155 UTC 22 October 2017
Temperature: 9.0°C (48°F)
Dewpoint: 8.0°C (46°F) [RH = 93%]
Pressure (altimeter): 30.35 inches Hg (1027.9 mb)
Winds: calm
Visibility: 10 or more miles (16+ km)
Ceiling: at least 12,000 feet AGL
Clouds: sky clear below 12,000 feet AGL
Weather: automated observation with no human augmentation;
there may or may not be significant weather present at this time

METAR text: KIDI 221135Z AUTO 00000KT 10SM CLR 08/08 A3035 RMK A01
Conditions at: KIDI (INDIANA/STEWART , PA, US) observed 1135 UTC 22 October 2017
Temperature: 8.0°C (46°F)
Dewpoint: 8.0°C (46°F) [RH = 100%]
Pressure (altimeter): 30.35 inches Hg (1027.9 mb)
Winds: calm
Visibility: 10 or more miles (16+ km)
Ceiling: at least 12,000 feet AGL
Clouds: sky clear below 12,000 feet AGL
Weather: automated observation with no human augmentation;
there may or may not be significant weather present at this time

METAR text: KIDI 221115Z AUTO 10003KT 10SM CLR 09/08 A3035 RMK A01
Conditions at: KIDI (INDIANA/STEWART , PA, US) observed 1115 UTC 22 October 2017
Temperature: 9.0°C (48°F)
Dewpoint: 8.0°C (46°F) [RH = 93%]
Pressure (altimeter): 30.35 inches Hg (1027.9 mb)
Winds: from the E (100 degrees) at 3 MPH (3 knots; 1.6 m/s)
Visibility: 10 or more miles (16+ km)
Ceiling: at least 12,000 feet AGL
Clouds: sky clear below 12,000 feet AGL
Weather: automated observation with no human augmentation;
there may or may not be significant weather present at this time

METAR text: KIDI 221055Z AUTO 00000KT 10SM CLR 09/08 A3035 RMK A01
Conditions at: KIDI (INDIANA/STEWART , PA, US) observed 1055 UTC 22 October 2017
Temperature: 9.0°C (48°F)
Dewpoint: 8.0°C (46°F) [RH = 93%]
Pressure (altimeter): 30.35 inches Hg (1027.9 mb)
Winds: calm
Visibility: 10 or more miles (16+ km)
Ceiling: at least 12,000 feet AGL
Clouds: sky clear below 12,000 feet AGL
Weather: automated observation with no human augmentation;
there may or may not be significant weather present at this time

METAR text: KIDI 221035Z AUTO 00000KT 10SM CLR 09/08 A3035 RMK A01
Conditions at: KIDI (INDIANA/STEWART , PA, US) observed 1035 UTC 22 October 2017
Temperature: 9.0°C (48°F)
Dewpoint: 8.0°C (46°F) [RH = 93%]
Pressure (altimeter): 30.35 inches Hg (1027.9 mb)
Winds: calm
Visibility: 10 or more miles (16+ km)
Ceiling: at least 12,000 feet AGL
Clouds: sky clear below 12,000 feet AGL
Weather: automated observation with no human augmentation;
there may or may not be significant weather present at this time

METAR text: KIDI 221015Z AUTO 09004KT 10SM CLR 09/08 A3035 RMK A01
Conditions at: KIDI (INDIANA/STEWART , PA, US) observed 1015 UTC 22 October 2017
Temperature: 9.0°C (48°F)
Dewpoint: 8.0°C (46°F) [RH = 93%]
Pressure (altimeter): 30.35 inches Hg (1027.9 mb)
Winds: from the E (90 degrees) at 5 MPH (4 knots; 2.1 m/s)
Visibility: 10 or more miles (16+ km)
Ceiling: at least 12,000 feet AGL
Clouds: sky clear below 12,000 feet AGL
Weather: automated observation with no human augmentation;
there may or may not be significant weather present at this time

METAR text: KIDI 220955Z AUTO 00000KT 10SM CLR 09/08 A3034 RMK A01
Conditions at: KIDI (INDIANA/STEWART , PA, US) observed 0955 UTC 22 October 2017
Temperature: 9.0°C (48°F)
Dewpoint: 8.0°C (46°F) [RH = 93%]
Pressure (altimeter): 30.34 inches Hg (1027.5 mb)
Winds: calm
Visibility: 10 or more miles (16+ km)
Ceiling: at least 12,000 feet AGL
Clouds: sky clear below 12,000 feet AGL
Weather: automated observation with no human augmentation;
there may or may not be significant weather present at this time

METAR text: KIDI 220935Z AUTO 00000KT 10SM CLR 10/09 A3034 RMK A01
Conditions at: KIDI (INDIANA/STEWART , PA, US) observed 0935 UTC 22 October 2017
Temperature: 10.0°C (50°F)
Dewpoint: 9.0°C (48°F) [RH = 93%]
Pressure (altimeter): 30.34 inches Hg (1027.5 mb)
Winds: calm
Visibility: 10 or more miles (16+ km)
Ceiling: at least 12,000 feet AGL
Clouds: sky clear below 12,000 feet AGL
Weather: automated observation with no human augmentation;
there may or may not be significant weather present at this time

METAR text: KIDI 220915Z AUTO 00000KT 10SM CLR 10/09 A3033 RMK A01
Conditions at: KIDI (INDIANA/STEWART , PA, US) observed 0915 UTC 22 October 2017
Temperature: 10.0°C (50°F)
Dewpoint: 9.0°C (48°F) [RH = 93%]
Pressure (altimeter): 30.33 inches Hg (1027.2 mb)
Winds: calm
Visibility: 10 or more miles (16+ km)
Ceiling: at least 12,000 feet AGL
Clouds: sky clear below 12,000 feet AGL
Weather: automated observation with no human augmentation;
there may or may not be significant weather present at this time

METAR text: KIDI 220855Z AUTO 00000KT 10SM CLR 11/09 A3033 RMK A01
Conditions at: KIDI (INDIANA/STEWART , PA, US) observed 0855 UTC 22 October 2017
Temperature: 11.0°C (52°F)
Dewpoint: 9.0°C (48°F) [RH = 87%]
Pressure (altimeter): 30.33 inches Hg (1027.2 mb)
Winds: calm
Visibility: 10 or more miles (16+ km)
Ceiling: at least 12,000 feet AGL
Clouds: sky clear below 12,000 feet AGL
Weather: automated observation with no human augmentation;
there may or may not be significant weather present at this time

METAR text: KIDI 220835Z AUTO 00000KT 10SM CLR 10/09 A3033 RMK A01
Conditions at: KIDI (INDIANA/STEWART , PA, US) observed 0835 UTC 22 October 2017
Temperature: 10.0°C (50°F)
Dewpoint: 9.0°C (48°F) [RH = 93%]
Pressure (altimeter): 30.33 inches Hg (1027.2 mb)
Winds: calm
Visibility: 10 or more miles (16+ km)
Ceiling: at least 12,000 feet AGL
Clouds: sky clear below 12,000 feet AGL
Weather: automated observation with no human augmentation;
there may or may not be significant weather present at this time

METAR text: KIDI 220815Z AUTO 00000KT 10SM CLR 11/09 A3032 RMK A01
Conditions at: KIDI (INDIANA/STEWART , PA, US) observed 0815 UTC 22 October 2017
Temperature: 11.0°C (52°F)
Dewpoint: 9.0°C (48°F) [RH = 87%]
Pressure (altimeter): 30.32 inches Hg (1026.8 mb)
Winds: calm
Visibility: 10 or more miles (16+ km)
Ceiling: at least 12,000 feet AGL
Clouds: sky clear below 12,000 feet AGL
Weather: automated observation with no human augmentation;
there may or may not be significant weather present at this time

METAR text: KIDI 220755Z AUTO 00000KT 10SM CLR 11/09 A3031 RMK A01
Conditions at: KIDI (INDIANA/STEWART , PA, US) observed 0755 UTC 22 October 2017
Temperature: 11.0°C (52°F)
Dewpoint: 9.0°C (48°F) [RH = 87%]
Pressure (altimeter): 30.31 inches Hg (1026.5 mb)
Winds: calm
Visibility: 10 or more miles (16+ km)
Ceiling: at least 12,000 feet AGL
Clouds: sky clear below 12,000 feet AGL
Weather: automated observation with no human augmentation;
there may or may not be significant weather present at this time

METAR text: KIDI 220735Z AUTO 00000KT 10SM CLR 12/09 A3031 RMK A01
Conditions at: KIDI (INDIANA/STEWART , PA, US) observed 0735 UTC 22 October 2017
Temperature: 12.0°C (54°F)
Dewpoint: 9.0°C (48°F) [RH = 82%]
Pressure (altimeter): 30.31 inches Hg (1026.5 mb)
Winds: calm
Visibility: 10 or more miles (16+ km)
Ceiling: at least 12,000 feet AGL
Clouds: sky clear below 12,000 feet AGL
Weather: automated observation with no human augmentation;
there may or may not be significant weather present at this time

METAR text: KIDI 220715Z AUTO 00000KT 10SM CLR 15/09 A3031 RMK A01
Conditions at: KIDI (INDIANA/STEWART , PA, US) observed 0715 UTC 22 October 2017
Temperature: 15.0°C (59°F)
Dewpoint: 9.0°C (48°F) [RH = 67%]
Pressure (altimeter): 30.31 inches Hg (1026.5 mb)
Winds: calm
Visibility: 10 or more miles (16+ km)
Ceiling: at least 12,000 feet AGL
Clouds: sky clear below 12,000 feet AGL
Weather: automated observation with no human augmentation;
there may or may not be significant weather present at this time

METAR text: KIDI 220655Z AUTO 00000KT 10SM CLR 15/09 A3031 RMK A01
Conditions at: KIDI (INDIANA/STEWART , PA, US) observed 0655 UTC 22 October 2017
Temperature: 15.0°C (59°F)
Dewpoint: 9.0°C (48°F) [RH = 67%]
Pressure (altimeter): 30.31 inches Hg (1026.5 mb)
Winds: calm
Visibility: 10 or more miles (16+ km)
Ceiling: at least 12,000 feet AGL
Clouds: sky clear below 12,000 feet AGL
Weather: automated observation with no human augmentation;
there may or may not be significant weather present at this time

METAR text: KIDI 220635Z AUTO 00000KT 10SM CLR 16/09 A3030 RMK A01
Conditions at: KIDI (INDIANA/STEWART , PA, US) observed 0635 UTC 22 October 2017
Temperature: 16.0°C (61°F)
Dewpoint: 9.0°C (48°F) [RH = 63%]
Pressure (altimeter): 30.30 inches Hg (1026.2 mb)
Winds: calm
Visibility: 10 or more miles (16+ km)
Ceiling: at least 12,000 feet AGL
Clouds: sky clear below 12,000 feet AGL
Weather: automated observation with no human augmentation;
there may or may not be significant weather present at this time

METAR text: KIDI 220615Z AUTO VRB06KT 10SM CLR 15/09 A3030 RMK A01
Conditions at: KIDI (INDIANA/STEWART , PA, US) observed 0615 UTC 22 October 2017
Temperature: 15.0°C (59°F)
Dewpoint: 9.0°C (48°F) [RH = 67%]
Pressure (altimeter): 30.30 inches Hg (1026.2 mb)
Winds: variable direction winds at 7 MPH (6 knots; 3.1 m/s)
Visibility: 10 or more miles (16+ km)
Ceiling: at least 12,000 feet AGL
Clouds: sky clear below 12,000 feet AGL
Weather: automated observation with no human augmentation;
there may or may not be significant weather present at this time

METAR text: KIDI 220555Z AUTO 00000KT 10SM CLR 14/09 A3030 RMK A01
Conditions at: KIDI (INDIANA/STEWART , PA, US) observed 0555 UTC 22 October 2017
Temperature: 14.0°C (57°F)
Dewpoint: 9.0°C (48°F) [RH = 72%]
Pressure (altimeter): 30.30 inches Hg (1026.2 mb)
Winds: calm
Visibility: 10 or more miles (16+ km)
Ceiling: at least 12,000 feet AGL
Clouds: sky clear below 12,000 feet AGL
Weather: automated observation with no human augmentation;
there may or may not be significant weather present at this time

METAR text: KIDI 220535Z AUTO VRB03KT 10SM CLR 15/09 A3031 RMK A01
Conditions at: KIDI (INDIANA/STEWART , PA, US) observed 0535 UTC 22 October 2017
Temperature: 15.0°C (59°F)
Dewpoint: 9.0°C (48°F) [RH = 67%]
Pressure (altimeter): 30.31 inches Hg (1026.5 mb)
Winds: variable direction winds at 3 MPH (3 knots; 1.6 m/s)
Visibility: 10 or more miles (16+ km)
Ceiling: at least 12,000 feet AGL
Clouds: sky clear below 12,000 feet AGL
Weather: automated observation with no human augmentation;
there may or may not be significant weather present at this time

METAR text: KIDI 220515Z AUTO 19008KT 10SM CLR 16/09 A3031 RMK A01
Conditions at: KIDI (INDIANA/STEWART , PA, US) observed 0515 UTC 22 October 2017
Temperature: 16.0°C (61°F)
Dewpoint: 9.0°C (48°F) [RH = 63%]
Pressure (altimeter): 30.31 inches Hg (1026.5 mb)
Winds: from the S (190 degrees) at 9 MPH (8 knots; 4.2 m/s)
Visibility: 10 or more miles (16+ km)
Ceiling: at least 12,000 feet AGL
Clouds: sky clear below 12,000 feet AGL
Weather: automated observation with no human augmentation;
there may or may not be significant weather present at this time

METAR text: KIDI 220455Z AUTO 18006KT 10SM CLR 16/09 A3032 RMK A01
Conditions at: KIDI (INDIANA/STEWART , PA, US) observed 0455 UTC 22 October 2017
Temperature: 16.0°C (61°F)
Dewpoint: 9.0°C (48°F) [RH = 63%]
Pressure (altimeter): 30.32 inches Hg (1026.8 mb)
Winds: from the S (180 degrees) at 7 MPH (6 knots; 3.1 m/s)
Visibility: 10 or more miles (16+ km)
Ceiling: at least 12,000 feet AGL
Clouds: sky clear below 12,000 feet AGL
Weather: automated observation with no human augmentation;
there may or may not be significant weather present at this time

METAR text: KIDI 220435Z AUTO 18007KT 10SM CLR 16/09 A3032 RMK A01
Conditions at: KIDI (INDIANA/STEWART , PA, US) observed 0435 UTC 22 October 2017
Temperature: 16.0°C (61°F)
Dewpoint: 9.0°C (48°F) [RH = 63%]
Pressure (altimeter): 30.32 inches Hg (1026.8 mb)
Winds: from the S (180 degrees) at 8 MPH (7 knots; 3.6 m/s)
Visibility: 10 or more miles (16+ km)
Ceiling: at least 12,000 feet AGL
Clouds: sky clear below 12,000 feet AGL
Weather: automated observation with no human augmentation;
there may or may not be significant weather present at this time

METAR text: KIDI 220415Z AUTO 23005KT 10SM CLR 16/09 A3032 RMK A01
Conditions at: KIDI (INDIANA/STEWART , PA, US) observed 0415 UTC 22 October 2017
Temperature: 16.0°C (61°F)
Dewpoint: 9.0°C (48°F) [RH = 63%]
Pressure (altimeter): 30.32 inches Hg (1026.8 mb)
Winds: from the SW (230 degrees) at 6 MPH (5 knots; 2.6 m/s)
Visibility: 10 or more miles (16+ km)
Ceiling: at least 12,000 feet AGL
Clouds: sky clear below 12,000 feet AGL
Weather: automated observation with no human augmentation;
there may or may not be significant weather present at this time

METAR text: KIDI 220355Z AUTO 18007KT 10SM CLR 16/09 A3032 RMK A01
Conditions at: KIDI (INDIANA/STEWART , PA, US) observed 0355 UTC 22 October 2017
Temperature: 16.0°C (61°F)
Dewpoint: 9.0°C (48°F) [RH = 63%]
Pressure (altimeter): 30.32 inches Hg (1026.8 mb)
Winds: from the S (180 degrees) at 8 MPH (7 knots; 3.6 m/s)
Visibility: 10 or more miles (16+ km)
Ceiling: at least 12,000 feet AGL
Clouds: sky clear below 12,000 feet AGL
Weather: automated observation with no human augmentation;
there may or may not be significant weather present at this time

METAR text: KIDI 220335Z AUTO 18006KT 10SM CLR 17/09 A3033 RMK A01
Conditions at: KIDI (INDIANA/STEWART , PA, US) observed 0335 UTC 22 October 2017
Temperature: 17.0°C (63°F)
Dewpoint: 9.0°C (48°F) [RH = 59%]
Pressure (altimeter): 30.33 inches Hg (1027.2 mb)
Winds: from the S (180 degrees) at 7 MPH (6 knots; 3.1 m/s)
Visibility: 10 or more miles (16+ km)
Ceiling: at least 12,000 feet AGL
Clouds: sky clear below 12,000 feet AGL
Weather: automated observation with no human augmentation;
there may or may not be significant weather present at this time

METAR text: KIDI 220315Z AUTO 19005KT 10SM CLR 17/09 A3033 RMK A01
Conditions at: KIDI (INDIANA/STEWART , PA, US) observed 0315 UTC 22 October 2017
Temperature: 17.0°C (63°F)
Dewpoint: 9.0°C (48°F) [RH = 59%]
Pressure (altimeter): 30.33 inches Hg (1027.2 mb)
Winds: from the S (190 degrees) at 6 MPH (5 knots; 2.6 m/s)
Visibility: 10 or more miles (16+ km)
Ceiling: at least 12,000 feet AGL
Clouds: sky clear below 12,000 feet AGL
Weather: automated observation with no human augmentation;
there may or may not be significant weather present at this time

METAR text: KIDI 220255Z AUTO 19008KT 10SM CLR 17/09 A3033 RMK A01
Conditions at: KIDI (INDIANA/STEWART , PA, US) observed 0255 UTC 22 October 2017
Temperature: 17.0°C (63°F)
Dewpoint: 9.0°C (48°F) [RH = 59%]
Pressure (altimeter): 30.33 inches Hg (1027.2 mb)
Winds: from the S (190 degrees) at 9 MPH (8 knots; 4.2 m/s)
Visibility: 10 or more miles (16+ km)
Ceiling: at least 12,000 feet AGL
Clouds: sky clear below 12,000 feet AGL
Weather: automated observation with no human augmentation;
there may or may not be significant weather present at this time

METAR text: KIDI 220235Z AUTO 19005KT 10SM CLR 17/09 A3034 RMK A01
Conditions at: KIDI (INDIANA/STEWART , PA, US) observed 0235 UTC 22 October 2017
Temperature: 17.0°C (63°F)
Dewpoint: 9.0°C (48°F) [RH = 59%]
Pressure (altimeter): 30.34 inches Hg (1027.5 mb)
Winds: from the S (190 degrees) at 6 MPH (5 knots; 2.6 m/s)
Visibility: 10 or more miles (16+ km)
Ceiling: at least 12,000 feet AGL
Clouds: sky clear below 12,000 feet AGL
Weather: automated observation with no human augmentation;
there may or may not be significant weather present at this time

METAR text: KIDI 220215Z AUTO 19005KT 10SM CLR 17/09 A3034 RMK A01
Conditions at: KIDI (INDIANA/STEWART , PA, US) observed 0215 UTC 22 October 2017
Temperature: 17.0°C (63°F)
Dewpoint: 9.0°C (48°F) [RH = 59%]
Pressure (altimeter): 30.34 inches Hg (1027.5 mb)
Winds: from the S (190 degrees) at 6 MPH (5 knots; 2.6 m/s)
Visibility: 10 or more miles (16+ km)
Ceiling: at least 12,000 feet AGL
Clouds: sky clear below 12,000 feet AGL
Weather: automated observation with no human augmentation;
there may or may not be significant weather present at this time

METAR text: KIDI 220155Z AUTO 17005KT 10SM CLR 18/09 A3034 RMK A01
Conditions at: KIDI (INDIANA/STEWART , PA, US) observed 0155 UTC 22 October 2017
Temperature: 18.0°C (64°F)
Dewpoint: 9.0°C (48°F) [RH = 56%]
Pressure (altimeter): 30.34 inches Hg (1027.5 mb)
Winds: from the S (170 degrees) at 6 MPH (5 knots; 2.6 m/s)
Visibility: 10 or more miles (16+ km)
Ceiling: at least 12,000 feet AGL
Clouds: sky clear below 12,000 feet AGL
Weather: automated observation with no human augmentation;
there may or may not be significant weather present at this time

METAR text: KIDI 220135Z AUTO 16006G11KT 10SM CLR 18/09 A3033 RMK A01
Conditions at: KIDI (INDIANA/STEWART , PA, US) observed 0135 UTC 22 October 2017
Temperature: 18.0°C (64°F)
Dewpoint: 9.0°C (48°F) [RH = 56%]
Pressure (altimeter): 30.33 inches Hg (1027.2 mb)
Winds: from the SSE (160 degrees) at 7 MPH (6 knots; 3.1 m/s)
gusting to 13 MPH (11 knots; 5.7 m/s)
Visibility: 10 or more miles (16+ km)
Ceiling: at least 12,000 feet AGL
Clouds: sky clear below 12,000 feet AGL
Weather: automated observation with no human augmentation;
there may or may not be significant weather present at this time

METAR text: KIDI 220115Z AUTO 17006KT 10SM CLR 18/09 A3033 RMK A01
Conditions at: KIDI (INDIANA/STEWART , PA, US) observed 0115 UTC 22 October 2017
Temperature: 18.0°C (64°F)
Dewpoint: 9.0°C (48°F) [RH = 56%]
Pressure (altimeter): 30.33 inches Hg (1027.2 mb)
Winds: from the S (170 degrees) at 7 MPH (6 knots; 3.1 m/s)
Visibility: 10 or more miles (16+ km)
Ceiling: at least 12,000 feet AGL
Clouds: sky clear below 12,000 feet AGL
Weather: automated observation with no human augmentation;
there may or may not be significant weather present at this time

METAR text: KIDI 220055Z AUTO 17007KT 10SM CLR 18/09 A3033 RMK A01
Conditions at: KIDI (INDIANA/STEWART , PA, US) observed 0055 UTC 22 October 2017
Temperature: 18.0°C (64°F)
Dewpoint: 9.0°C (48°F) [RH = 56%]
Pressure (altimeter): 30.33 inches Hg (1027.2 mb)
Winds: from the S (170 degrees) at 8 MPH (7 knots; 3.6 m/s)
Visibility: 10 or more miles (16+ km)
Ceiling: at least 12,000 feet AGL
Clouds: sky clear below 12,000 feet AGL
Weather: automated observation with no human augmentation;
there may or may not be significant weather present at this time

METAR text: KIDI 220035Z AUTO 16004KT 10SM CLR 18/08 A3033 RMK A01
Conditions at: KIDI (INDIANA/STEWART , PA, US) observed 0035 UTC 22 October 2017
Temperature: 18.0°C (64°F)
Dewpoint: 8.0°C (46°F) [RH = 52%]
Pressure (altimeter): 30.33 inches Hg (1027.2 mb)
Winds: from the SSE (160 degrees) at 5 MPH (4 knots; 2.1 m/s)
Visibility: 10 or more miles (16+ km)
Ceiling: at least 12,000 feet AGL
Clouds: sky clear below 12,000 feet AGL
Weather: automated observation with no human augmentation;
there may or may not be significant weather present at this time

METAR text: KIDI 220015Z AUTO 19003KT 10SM CLR 19/08 A3033 RMK A01
Conditions at: KIDI (INDIANA/STEWART , PA, US) observed 0015 UTC 22 October 2017
Temperature: 19.0°C (66°F)
Dewpoint: 8.0°C (46°F) [RH = 49%]
Pressure (altimeter): 30.33 inches Hg (1027.2 mb)
Winds: from the S (190 degrees) at 3 MPH (3 knots; 1.6 m/s)
Visibility: 10 or more miles (16+ km)
Ceiling: at least 12,000 feet AGL
Clouds: sky clear below 12,000 feet AGL
Weather: automated observation with no human augmentation;
there may or may not be significant weather present at this time

METAR text: KIDI 212355Z AUTO 16006KT 10SM CLR 19/08 A3032 RMK A01
Conditions at: KIDI (INDIANA/STEWART , PA, US) observed 2355 UTC 21 October 2017
Temperature: 19.0°C (66°F)
Dewpoint: 8.0°C (46°F) [RH = 49%]
Pressure (altimeter): 30.32 inches Hg (1026.8 mb)
Winds: from the SSE (160 degrees) at 7 MPH (6 knots; 3.1 m/s)
Visibility: 10 or more miles (16+ km)
Ceiling: at least 12,000 feet AGL
Clouds: sky clear below 12,000 feet AGL
Weather: automated observation with no human augmentation;
there may or may not be significant weather present at this time

METAR text: KIDI 212335Z AUTO 15007KT 10SM CLR 20/07 A3032 RMK A01
Conditions at: KIDI (INDIANA/STEWART , PA, US) observed 2335 UTC 21 October 2017
Temperature: 20.0°C (68°F)
Dewpoint: 7.0°C (45°F) [RH = 43%]
Pressure (altimeter): 30.32 inches Hg (1026.8 mb)
Winds: from the SSE (150 degrees) at 8 MPH (7 knots; 3.6 m/s)
Visibility: 10 or more miles (16+ km)
Ceiling: at least 12,000 feet AGL
Clouds: sky clear below 12,000 feet AGL
Weather: automated observation with no human augmentation;
there may or may not be significant weather present at this time

METAR text: KIDI 212315Z AUTO 16006G12KT 10SM CLR 20/07 A3032 RMK A01
Conditions at: KIDI (INDIANA/STEWART , PA, US) observed 2315 UTC 21 October 2017
Temperature: 20.0°C (68°F)
Dewpoint: 7.0°C (45°F) [RH = 43%]
Pressure (altimeter): 30.32 inches Hg (1026.8 mb)
Winds: from the SSE (160 degrees) at 7 MPH (6 knots; 3.1 m/s)
gusting to 14 MPH (12 knots; 6.2 m/s)
Visibility: 10 or more miles (16+ km)
Ceiling: at least 12,000 feet AGL
Clouds: sky clear below 12,000 feet AGL
Weather: automated observation with no human augmentation;
there may or may not be significant weather present at this time

METAR text: KIDI 212255Z AUTO 14005KT 10SM CLR 20/07 A3032 RMK A01
Conditions at: KIDI (INDIANA/STEWART , PA, US) observed 2255 UTC 21 October 2017
Temperature: 20.0°C (68°F)
Dewpoint: 7.0°C (45°F) [RH = 43%]
Pressure (altimeter): 30.32 inches Hg (1026.8 mb)
Winds: from the SE (140 degrees) at 6 MPH (5 knots; 2.6 m/s)
Visibility: 10 or more miles (16+ km)
Ceiling: at least 12,000 feet AGL
Clouds: sky clear below 12,000 feet AGL
Weather: automated observation with no human augmentation;
there may or may not be significant weather present at this time

METAR text: KIDI 212235Z AUTO 13005KT 10SM CLR 20/07 A3031 RMK A01
Conditions at: KIDI (INDIANA/STEWART , PA, US) observed 2235 UTC 21 October 2017
Temperature: 20.0°C (68°F)
Dewpoint: 7.0°C (45°F) [RH = 43%]
Pressure (altimeter): 30.31 inches Hg (1026.5 mb)
Winds: from the SE (130 degrees) at 6 MPH (5 knots; 2.6 m/s)
Visibility: 10 or more miles (16+ km)
Ceiling: at least 12,000 feet AGL
Clouds: sky clear below 12,000 feet AGL
Weather: automated observation with no human augmentation;
there may or may not be significant weather present at this time

METAR text: KIDI 212215Z AUTO 13007KT 10SM CLR 21/07 A3031 RMK A01
Conditions at: KIDI (INDIANA/STEWART , PA, US) observed 2215 UTC 21 October 2017
Temperature: 21.0°C (70°F)
Dewpoint: 7.0°C (45°F) [RH = 40%]
Pressure (altimeter): 30.31 inches Hg (1026.5 mb)
Winds: from the SE (130 degrees) at 8 MPH (7 knots; 3.6 m/s)
Visibility: 10 or more miles (16+ km)
Ceiling: at least 12,000 feet AGL
Clouds: sky clear below 12,000 feet AGL
Weather: automated observation with no human augmentation;
there may or may not be significant weather present at this time

METAR text: KIDI 212155Z AUTO 14005KT 10SM CLR 21/08 A3031 RMK A01
Conditions at: KIDI (INDIANA/STEWART , PA, US) observed 2155 UTC 21 October 2017
Temperature: 21.0°C (70°F)
Dewpoint: 8.0°C (46°F) [RH = 43%]
Pressure (altimeter): 30.31 inches Hg (1026.5 mb)
Winds: from the SE (140 degrees) at 6 MPH (5 knots; 2.6 m/s)
Visibility: 10 or more miles (16+ km)
Ceiling: at least 12,000 feet AGL
Clouds: sky clear below 12,000 feet AGL
Weather: automated observation with no human augmentation;
there may or may not be significant weather present at this time

METAR text: KIDI 212135Z AUTO 13006KT 10SM CLR 22/08 A3031 RMK A01
Conditions at: KIDI (INDIANA/STEWART , PA, US) observed 2135 UTC 21 October 2017
Temperature: 22.0°C (72°F)
Dewpoint: 8.0°C (46°F) [RH = 41%]
Pressure (altimeter): 30.31 inches Hg (1026.5 mb)
Winds: from the SE (130 degrees) at 7 MPH (6 knots; 3.1 m/s)
Visibility: 10 or more miles (16+ km)
Ceiling: at least 12,000 feet AGL
Clouds: sky clear below 12,000 feet AGL
Weather: automated observation with no human augmentation;
there may or may not be significant weather present at this time

METAR text: KIDI 212115Z AUTO 11003KT 10SM CLR 23/10 A3031 RMK A01
Conditions at: KIDI (INDIANA/STEWART , PA, US) observed 2115 UTC 21 October 2017
Temperature: 23.0°C (73°F)
Dewpoint: 10.0°C (50°F) [RH = 44%]
Pressure (altimeter): 30.31 inches Hg (1026.5 mb)
Winds: from the ESE (110 degrees) at 3 MPH (3 knots; 1.6 m/s)
Visibility: 10 or more miles (16+ km)
Ceiling: at least 12,000 feet AGL
Clouds: sky clear below 12,000 feet AGL
Weather: automated observation with no human augmentation;
there may or may not be significant weather present at this time